メインページ
METAR-TAF:

METAR-TAF

空港 :

サンパウロ, サンパウロ州, ブラジル

コンゴーニャス空港

緯度: 23-37S, 経度: 046-39W, 海抜: 803m

現時点の気象観測

当レポートは18分前の06:00(UTC)に作成
南/南東の風 8kt
気温 19°C
湿度 83%
気圧 1018 hPa
視程10km以上
高度900ftの雲はほとんどない
高度1200ftの雲は散在している
高度1400ftの曇り

METAR: SBSP 280600Z AUTO 15008KT 9999 FEW009 SCT012 OVC014 19/16 Q1018

時間: 03:18 (06:18 UTC)

予報

当レポートは4時間16分前の02:02(UTC)に作成
予報は28日の 06時(UTC)から 29日の 06時(UTC)まで有効
南/南東の風 8kt
視程10km以上
高度1500ftの千切れ雲あり
確率 30%
28日の 08時(UTC)から 28日の 11時(UTC)まで
視程: 4000m
高度600ftの千切れ雲あり
28日の 13時(UTC)から 28日の 15時(UTC)まで徐々に
の風 10kt
高度1700ftの千切れ雲あり
28日の 18時(UTC)から 28日の 20時(UTC)まで徐々に
高度1000ftの千切れ雲あり
29日の 02時(UTC)から 29日の 04時(UTC)まで徐々に
の風 3kt
視程10km以上
1,500メートル以下は雲なし、積乱雲なし

TAF: SBSP 280202Z 2806/2906 15008KT 9999 BKN015 TN16/2809Z TX25/2818Z PROB30 2808/2811 4000 BR BKN006 BECMG 2813/2815 17010KT BKN017 BECMG 2818/2820 BKN010 BECMG 2902/2904 08003KT CAVOK RMK PHN

4,000以上の空港の気象観測と天気予報(METAR報とTAF報)

利用可能な観測所は地図上に黄色い丸と赤い丸で示す。

丸の上にカーソルを重ねると観測所名を参照できる。

次にクリックすると気象観測と天気予報を参照できる。

マップの切り替え:黒色「×」印の緑ボタンをクリックして拡大、「-」印の緑ボタンをクリックして縮小、緑色の三角印をクリックして隣りの地図に切り替え


METAR-TAF: